To NAV CANADA Home Page Login to a new session Search on AWWS site Feedback and Comments Disclaimer Vers la page française équivalente Tips FAQ What's new on the site To the Forecasts and Observations / NOTAM section To "File a Flight Plan" website Publications and other links Update of the User's profile FIC Telephone Numbers My Weather Data Folder Route Weather Data Regional Weather Data Local Weather Data To the Forecasts and Observations / NOTAM section
Request Generated 04/27/2015 at 22:12:29 UTC . Weather information available at that time is displayed.

METAR/TAF

TORONTO/LESTER B. PEARSON INTL/ON    

METAR CYYZ 272200Z 34015G20KT 15SM FEW042 BKN065 BKN260 12/03 A2992
RMK CU2SC4CI1 SLP136=
METAR CYYZ 272100Z 36013G20KT 15SM FEW038 BKN060 BKN260 12/03 A2991
RMK CU1SC6CI1 CI TR SLP131=
METAR CYYZ 272000Z 35010G16KT 15SM SCT033 BKN055 11/03 A2990 RMK
CU3SC4 SLP130=

TAF CYYZ 272038Z 2721/2824 35015KT P6SM SCT025 BKN050
FM280700 34012KT P6SM FEW050
FM281600 34012G22KT P6SM BKN040
FM282300 34010KT P6SM FEW060
RMK NXT FCST BY 280000Z=
Your time UTC time
Weather data provided by Environment Canada and NAV CANADA